sensor_id;sensor_type;location;lat;lon;timestamp;P1;durP1;ratioP1;P2;durP2;ratioP2
43519;SDS011;46848;51.980;5.918;2024-01-16T00:01:42;5.33;;;1.50;;
43519;SDS011;46848;51.980;5.918;2024-01-16T00:04:08;7.27;;;1.77;;
43519;SDS011;46848;51.980;5.918;2024-01-16T00:06:38;8.37;;;1.67;;
43519;SDS011;46848;51.980;5.918;2024-01-16T00:09:07;7.43;;;1.80;;
43519;SDS011;46848;51.980;5.918;2024-01-16T00:11:33;5.73;;;1.60;;
43519;SDS011;46848;51.980;5.918;2024-01-16T00:13:59;5.27;;;1.63;;
43519;SDS011;46848;51.980;5.918;2024-01-16T00:16:24;4.20;;;1.30;;
43519;SDS011;46848;51.980;5.918;2024-01-16T00:18:50;5.40;;;1.50;;
43519;SDS011;46848;51.980;5.918;2024-01-16T00:21:15;5.17;;;1.23;;
43519;SDS011;46848;51.980;5.918;2024-01-16T00:23:41;5.40;;;1.33;;
43519;SDS011;46848;51.980;5.918;2024-01-16T00:26:07;4.27;;;1.20;;
43519;SDS011;46848;51.980;5.918;2024-01-16T00:28:32;4.73;;;1.30;;
43519;SDS011;46848;51.980;5.918;2024-01-16T00:30:58;6.00;;;1.53;;
43519;SDS011;46848;51.980;5.918;2024-01-16T00:33:23;5.87;;;1.60;;
43519;SDS011;46848;51.980;5.918;2024-01-16T00:35:49;8.23;;;1.93;;
43519;SDS011;46848;51.980;5.918;2024-01-16T00:38:15;6.07;;;1.57;;
43519;SDS011;46848;51.980;5.918;2024-01-16T00:40:40;5.43;;;1.20;;
43519;SDS011;46848;51.980;5.918;2024-01-16T00:43:06;9.00;;;1.20;;
43519;SDS011;46848;51.980;5.918;2024-01-16T00:45:32;5.73;;;1.20;;
43519;SDS011;46848;51.980;5.918;2024-01-16T00:47:57;5.20;;;1.10;;
43519;SDS011;46848;51.980;5.918;2024-01-16T00:50:24;5.70;;;1.10;;
43519;SDS011;46848;51.980;5.918;2024-01-16T00:52:49;4.80;;;1.07;;
43519;SDS011;46848;51.980;5.918;2024-01-16T00:55:15;5.43;;;1.30;;
43519;SDS011;46848;51.980;5.918;2024-01-16T00:57:40;4.83;;;1.10;;
43519;SDS011;46848;51.980;5.918;2024-01-16T01:00:06;7.93;;;1.30;;
43519;SDS011;46848;51.980;5.918;2024-01-16T01:02:33;2.73;;;1.00;;
43519;SDS011;46848;51.980;5.918;2024-01-16T01:04:58;4.10;;;1.20;;
43519;SDS011;46848;51.980;5.918;2024-01-16T01:07:24;5.17;;;1.10;;
43519;SDS011;46848;51.980;5.918;2024-01-16T01:09:50;3.20;;;0.87;;
43519;SDS011;46848;51.980;5.918;2024-01-16T01:12:16;6.93;;;1.63;;
43519;SDS011;46848;51.980;5.918;2024-01-16T01:14:42;7.03;;;1.30;;
43519;SDS011;46848;51.980;5.918;2024-01-16T01:17:07;3.83;;;1.10;;
43519;SDS011;46848;51.980;5.918;2024-01-16T01:19:33;6.53;;;1.50;;
43519;SDS011;46848;51.980;5.918;2024-01-16T01:21:59;3.47;;;0.77;;
43519;SDS011;46848;51.980;5.918;2024-01-16T01:24:24;3.80;;;1.20;;
43519;SDS011;46848;51.980;5.918;2024-01-16T01:26:50;7.63;;;1.33;;
43519;SDS011;46848;51.980;5.918;2024-01-16T01:29:16;5.93;;;1.10;;
43519;SDS011;46848;51.980;5.918;2024-01-16T01:31:44;7.47;;;1.40;;
43519;SDS011;46848;51.980;5.918;2024-01-16T01:34:12;3.73;;;0.90;;
43519;SDS011;46848;51.980;5.918;2024-01-16T01:36:38;6.13;;;1.20;;
43519;SDS011;46848;51.980;5.918;2024-01-16T01:39:03;5.47;;;1.40;;
43519;SDS011;46848;51.980;5.918;2024-01-16T01:41:29;7.30;;;1.23;;
43519;SDS011;46848;51.980;5.918;2024-01-16T01:43:55;3.37;;;0.93;;
43519;SDS011;46848;51.980;5.918;2024-01-16T01:46:20;4.47;;;0.73;;
43519;SDS011;46848;51.980;5.918;2024-01-16T01:48:47;3.83;;;1.03;;
43519;SDS011;46848;51.980;5.918;2024-01-16T01:51:13;3.73;;;1.00;;
43519;SDS011;46848;51.980;5.918;2024-01-16T01:53:42;4.10;;;0.90;;
43519;SDS011;46848;51.980;5.918;2024-01-16T01:56:16;4.87;;;1.17;;
43519;SDS011;46848;51.980;5.918;2024-01-16T01:58:44;6.10;;;1.47;;
43519;SDS011;46848;51.980;5.918;2024-01-16T02:01:11;5.20;;;1.40;;
43519;SDS011;46848;51.980;5.918;2024-01-16T02:03:40;5.80;;;1.07;;
43519;SDS011;46848;51.980;5.918;2024-01-16T02:06:08;4.20;;;0.90;;
43519;SDS011;46848;51.980;5.918;2024-01-16T02:08:36;6.33;;;1.30;;
43519;SDS011;46848;51.980;5.918;2024-01-16T02:11:01;4.63;;;1.23;;
43519;SDS011;46848;51.980;5.918;2024-01-16T02:13:27;9.47;;;1.40;;
43519;SDS011;46848;51.980;5.918;2024-01-16T02:15:53;5.07;;;1.50;;
43519;SDS011;46848;51.980;5.918;2024-01-16T02:18:19;6.20;;;1.40;;
43519;SDS011;46848;51.980;5.918;2024-01-16T02:20:44;7.80;;;1.27;;
43519;SDS011;46848;51.980;5.918;2024-01-16T02:23:12;6.53;;;2.40;;
43519;SDS011;46848;51.980;5.918;2024-01-16T02:25:40;4.17;;;1.30;;
43519;SDS011;46848;51.980;5.918;2024-01-16T02:28:07;5.20;;;1.20;;
43519;SDS011;46848;51.980;5.918;2024-01-16T02:30:32;5.97;;;1.30;;
43519;SDS011;46848;51.980;5.918;2024-01-16T02:32:58;5.53;;;1.53;;
43519;SDS011;46848;51.980;5.918;2024-01-16T02:35:24;4.10;;;1.33;;
43519;SDS011;46848;51.980;5.918;2024-01-16T02:37:50;4.80;;;1.30;;
43519;SDS011;46848;51.980;5.918;2024-01-16T02:40:15;4.17;;;1.33;;
43519;SDS011;46848;51.980;5.918;2024-01-16T02:42:41;5.53;;;1.40;;
43519;SDS011;46848;51.980;5.918;2024-01-16T02:45:06;6.23;;;1.77;;
43519;SDS011;46848;51.980;5.918;2024-01-16T02:47:32;6.27;;;1.90;;
43519;SDS011;46848;51.980;5.918;2024-01-16T02:49:59;6.80;;;1.80;;
43519;SDS011;46848;51.980;5.918;2024-01-16T02:52:25;4.43;;;1.97;;
43519;SDS011;46848;51.980;5.918;2024-01-16T02:54:50;4.73;;;2.00;;
43519;SDS011;46848;51.980;5.918;2024-01-16T02:57:16;5.73;;;2.53;;
43519;SDS011;46848;51.980;5.918;2024-01-16T02:59:45;7.97;;;2.80;;
43519;SDS011;46848;51.980;5.918;2024-01-16T03:02:10;7.77;;;2.70;;
43519;SDS011;46848;51.980;5.918;2024-01-16T03:04:36;5.97;;;3.07;;
43519;SDS011;46848;51.980;5.918;2024-01-16T03:07:02;7.67;;;3.40;;
43519;SDS011;46848;51.980;5.918;2024-01-16T03:09:28;7.50;;;3.20;;
43519;SDS011;46848;51.980;5.918;2024-01-16T03:11:53;7.57;;;2.90;;
43519;SDS011;46848;51.980;5.918;2024-01-16T03:14:19;6.30;;;2.90;;
43519;SDS011;46848;51.980;5.918;2024-01-16T03:16:45;7.27;;;2.70;;
43519;SDS011;46848;51.980;5.918;2024-01-16T03:19:11;6.97;;;2.87;;
43519;SDS011;46848;51.980;5.918;2024-01-16T03:21:37;7.37;;;2.70;;
43519;SDS011;46848;51.980;5.918;2024-01-16T03:24:04;6.50;;;2.77;;
43519;SDS011;46848;51.980;5.918;2024-01-16T03:26:30;7.17;;;2.90;;
43519;SDS011;46848;51.980;5.918;2024-01-16T03:28:56;8.33;;;2.80;;
43519;SDS011;46848;51.980;5.918;2024-01-16T03:31:22;6.87;;;2.73;;
43519;SDS011;46848;51.980;5.918;2024-01-16T03:33:48;5.50;;;2.60;;
43519;SDS011;46848;51.980;5.918;2024-01-16T03:36:13;7.23;;;3.17;;
43519;SDS011;46848;51.980;5.918;2024-01-16T03:38:41;5.57;;;2.73;;
43519;SDS011;46848;51.980;5.918;2024-01-16T03:41:07;7.43;;;2.33;;
43519;SDS011;46848;51.980;5.918;2024-01-16T03:43:33;4.97;;;2.60;;
43519;SDS011;46848;51.980;5.918;2024-01-16T03:45:59;6.47;;;2.87;;
43519;SDS011;46848;51.980;5.918;2024-01-16T03:48:25;6.57;;;2.57;;
43519;SDS011;46848;51.980;5.918;2024-01-16T03:50:51;6.47;;;2.40;;
43519;SDS011;46848;51.980;5.918;2024-01-16T03:53:16;10.73;;;3.07;;
43519;SDS011;46848;51.980;5.918;2024-01-16T03:55:42;6.60;;;2.90;;
43519;SDS011;46848;51.980;5.918;2024-01-16T03:58:07;8.03;;;2.93;;
43519;SDS011;46848;51.980;5.918;2024-01-16T04:00:33;4.87;;;2.50;;
43519;SDS011;46848;51.980;5.918;2024-01-16T04:02:59;7.80;;;2.63;;
43519;SDS011;46848;51.980;5.918;2024-01-16T04:05:24;6.23;;;2.40;;
43519;SDS011;46848;51.980;5.918;2024-01-16T04:07:50;9.67;;;2.57;;
43519;SDS011;46848;51.980;5.918;2024-01-16T04:10:17;4.80;;;2.40;;
43519;SDS011;46848;51.980;5.918;2024-01-16T04:12:42;5.57;;;2.07;;
43519;SDS011;46848;51.980;5.918;2024-01-16T04:15:08;5.47;;;2.10;;
43519;SDS011;46848;51.980;5.918;2024-01-16T04:17:34;5.13;;;2.10;;
43519;SDS011;46848;51.980;5.918;2024-01-16T04:20:00;5.27;;;1.87;;
43519;SDS011;46848;51.980;5.918;2024-01-16T04:22:25;6.03;;;2.13;;
43519;SDS011;46848;51.980;5.918;2024-01-16T04:24:51;3.80;;;1.87;;
43519;SDS011;46848;51.980;5.918;2024-01-16T04:27:16;4.13;;;2.03;;
43519;SDS011;46848;51.980;5.918;2024-01-16T04:29:42;4.03;;;1.50;;
43519;SDS011;46848;51.980;5.918;2024-01-16T04:32:09;4.50;;;1.63;;
43519;SDS011;46848;51.980;5.918;2024-01-16T04:34:35;5.07;;;1.43;;
43519;SDS011;46848;51.980;5.918;2024-01-16T04:37:00;5.30;;;2.17;;
43519;SDS011;46848;51.980;5.918;2024-01-16T04:39:26;5.80;;;1.53;;
43519;SDS011;46848;51.980;5.918;2024-01-16T04:41:51;5.23;;;1.23;;
43519;SDS011;46848;51.980;5.918;2024-01-16T04:44:17;3.53;;;1.40;;
43519;SDS011;46848;51.980;5.918;2024-01-16T04:46:42;3.93;;;1.67;;
43519;SDS011;46848;51.980;5.918;2024-01-16T04:49:08;6.20;;;1.67;;
43519;SDS011;46848;51.980;5.918;2024-01-16T04:51:34;4.77;;;1.83;;
43519;SDS011;46848;51.980;5.918;2024-01-16T04:53:59;4.63;;;1.40;;
43519;SDS011;46848;51.980;5.918;2024-01-16T04:56:25;4.33;;;1.67;;
43519;SDS011;46848;51.980;5.918;2024-01-16T04:58:50;3.87;;;1.33;;
43519;SDS011;46848;51.980;5.918;2024-01-16T05:01:17;6.67;;;1.60;;
43519;SDS011;46848;51.980;5.918;2024-01-16T05:03:42;5.67;;;1.30;;
43519;SDS011;46848;51.980;5.918;2024-01-16T05:06:14;4.57;;;1.27;;
43519;SDS011;46848;51.980;5.918;2024-01-16T05:11:06;7.50;;;2.03;;
43519;SDS011;46848;51.980;5.918;2024-01-16T05:13:32;5.97;;;1.93;;
43519;SDS011;46848;51.980;5.918;2024-01-16T05:15:58;7.30;;;2.13;;
43519;SDS011;46848;51.980;5.918;2024-01-16T05:18:23;6.07;;;2.30;;
43519;SDS011;46848;51.980;5.918;2024-01-16T05:20:49;6.07;;;2.40;;
43519;SDS011;46848;51.980;5.918;2024-01-16T05:23:14;4.60;;;2.00;;
43519;SDS011;46848;51.980;5.918;2024-01-16T05:25:40;5.13;;;2.27;;
43519;SDS011;46848;51.980;5.918;2024-01-16T05:28:05;4.97;;;2.00;;
43519;SDS011;46848;51.980;5.918;2024-01-16T05:30:32;6.63;;;2.03;;
43519;SDS011;46848;51.980;5.918;2024-01-16T05:32:58;5.73;;;1.90;;
43519;SDS011;46848;51.980;5.918;2024-01-16T05:35:26;6.83;;;2.30;;
43519;SDS011;46848;51.980;5.918;2024-01-16T05:37:53;6.00;;;1.70;;
43519;SDS011;46848;51.980;5.918;2024-01-16T05:40:19;10.07;;;2.73;;
43519;SDS011;46848;51.980;5.918;2024-01-16T05:42:44;5.93;;;1.80;;
43519;SDS011;46848;51.980;5.918;2024-01-16T05:45:10;5.20;;;1.90;;
43519;SDS011;46848;51.980;5.918;2024-01-16T05:47:36;5.07;;;1.70;;
43519;SDS011;46848;51.980;5.918;2024-01-16T05:50:01;5.80;;;1.90;;
43519;SDS011;46848;51.980;5.918;2024-01-16T05:52:27;5.73;;;1.40;;
43519;SDS011;46848;51.980;5.918;2024-01-16T05:54:53;5.57;;;1.67;;
43519;SDS011;46848;51.980;5.918;2024-01-16T05:57:22;4.83;;;1.20;;
43519;SDS011;46848;51.980;5.918;2024-01-16T05:59:48;3.17;;;1.20;;
43519;SDS011;46848;51.980;5.918;2024-01-16T06:02:13;3.70;;;1.00;;
43519;SDS011;46848;51.980;5.918;2024-01-16T06:04:39;4.90;;;1.50;;
43519;SDS011;46848;51.980;5.918;2024-01-16T06:07:05;6.47;;;1.10;;
43519;SDS011;46848;51.980;5.918;2024-01-16T06:09:33;5.23;;;1.40;;
43519;SDS011;46848;51.980;5.918;2024-01-16T06:12:03;5.33;;;1.50;;
43519;SDS011;46848;51.980;5.918;2024-01-16T06:14:29;4.23;;;1.47;;
43519;SDS011;46848;51.980;5.918;2024-01-16T06:16:55;4.70;;;1.30;;
43519;SDS011;46848;51.980;5.918;2024-01-16T06:19:20;4.03;;;1.00;;
43519;SDS011;46848;51.980;5.918;2024-01-16T06:21:46;4.30;;;1.00;;
43519;SDS011;46848;51.980;5.918;2024-01-16T06:24:12;8.47;;;1.23;;
43519;SDS011;46848;51.980;5.918;2024-01-16T06:26:38;5.27;;;1.10;;
43519;SDS011;46848;51.980;5.918;2024-01-16T06:29:04;5.97;;;1.00;;
43519;SDS011;46848;51.980;5.918;2024-01-16T06:31:29;4.17;;;1.53;;
43519;SDS011;46848;51.980;5.918;2024-01-16T06:33:55;4.73;;;1.20;;
43519;SDS011;46848;51.980;5.918;2024-01-16T06:36:20;7.30;;;1.10;;
43519;SDS011;46848;51.980;5.918;2024-01-16T06:38:46;5.17;;;1.40;;
43519;SDS011;46848;51.980;5.918;2024-01-16T06:41:11;5.40;;;1.43;;
43519;SDS011;46848;51.980;5.918;2024-01-16T06:43:37;3.30;;;1.00;;
43519;SDS011;46848;51.980;5.918;2024-01-16T06:46:04;5.07;;;1.50;;
43519;SDS011;46848;51.980;5.918;2024-01-16T06:48:30;5.63;;;1.30;;
43519;SDS011;46848;51.980;5.918;2024-01-16T06:50:56;10.47;;;1.60;;
43519;SDS011;46848;51.980;5.918;2024-01-16T06:53:21;7.77;;;1.30;;
43519;SDS011;46848;51.980;5.918;2024-01-16T06:55:48;5.63;;;1.40;;
43519;SDS011;46848;51.980;5.918;2024-01-16T06:58:13;7.20;;;1.90;;
43519;SDS011;46848;51.980;5.918;2024-01-16T07:00:39;5.17;;;1.33;;
43519;SDS011;46848;51.980;5.918;2024-01-16T07:03:07;6.20;;;1.30;;
43519;SDS011;46848;51.980;5.918;2024-01-16T07:05:32;6.53;;;1.37;;
43519;SDS011;46848;51.980;5.918;2024-01-16T07:07:58;4.23;;;1.20;;
43519;SDS011;46848;51.980;5.918;2024-01-16T07:10:23;3.27;;;1.30;;
43519;SDS011;46848;51.980;5.918;2024-01-16T07:12:49;5.40;;;1.33;;
43519;SDS011;46848;51.980;5.918;2024-01-16T07:15:16;3.63;;;1.10;;
43519;SDS011;46848;51.980;5.918;2024-01-16T07:17:43;3.57;;;1.07;;
43519;SDS011;46848;51.980;5.918;2024-01-16T07:20:08;6.73;;;1.50;;
43519;SDS011;46848;51.980;5.918;2024-01-16T07:22:36;3.87;;;1.50;;
43519;SDS011;46848;51.980;5.918;2024-01-16T07:25:02;8.43;;;1.60;;
43519;SDS011;46848;51.980;5.918;2024-01-16T07:27:28;6.93;;;1.37;;
43519;SDS011;46848;51.980;5.918;2024-01-16T07:29:53;4.73;;;1.27;;
43519;SDS011;46848;51.980;5.918;2024-01-16T07:32:19;3.37;;;1.40;;
43519;SDS011;46848;51.980;5.918;2024-01-16T07:34:45;5.80;;;1.83;;
43519;SDS011;46848;51.980;5.918;2024-01-16T07:37:10;6.47;;;1.80;;
43519;SDS011;46848;51.980;5.918;2024-01-16T07:39:36;3.83;;;1.53;;
43519;SDS011;46848;51.980;5.918;2024-01-16T07:42:01;4.27;;;1.47;;
43519;SDS011;46848;51.980;5.918;2024-01-16T07:44:27;4.77;;;1.90;;
43519;SDS011;46848;51.980;5.918;2024-01-16T07:46:52;5.17;;;2.17;;
43519;SDS011;46848;51.980;5.918;2024-01-16T07:49:18;6.83;;;2.07;;
43519;SDS011;46848;51.980;5.918;2024-01-16T07:51:44;5.17;;;1.80;;
43519;SDS011;46848;51.980;5.918;2024-01-16T07:54:10;6.43;;;2.60;;
43519;SDS011;46848;51.980;5.918;2024-01-16T07:56:37;6.27;;;2.70;;
43519;SDS011;46848;51.980;5.918;2024-01-16T07:59:03;8.17;;;2.93;;
43519;SDS011;46848;51.980;5.918;2024-01-16T08:01:29;8.30;;;3.00;;
43519;SDS011;46848;51.980;5.918;2024-01-16T08:03:55;10.33;;;3.47;;
43519;SDS011;46848;51.980;5.918;2024-01-16T08:06:21;8.40;;;3.20;;
43519;SDS011;46848;51.980;5.918;2024-01-16T08:08:47;7.47;;;3.50;;
43519;SDS011;46848;51.980;5.918;2024-01-16T08:11:13;9.07;;;4.13;;
43519;SDS011;46848;51.980;5.918;2024-01-16T08:13:39;11.83;;;4.97;;
43519;SDS011;46848;51.980;5.918;2024-01-16T08:16:05;11.97;;;5.57;;
43519;SDS011;46848;51.980;5.918;2024-01-16T08:18:31;12.87;;;4.53;;
43519;SDS011;46848;51.980;5.918;2024-01-16T08:20:57;10.33;;;4.60;;
43519;SDS011;46848;51.980;5.918;2024-01-16T08:23:22;11.23;;;4.30;;
43519;SDS011;46848;51.980;5.918;2024-01-16T08:25:48;7.67;;;4.07;;
43519;SDS011;46848;51.980;5.918;2024-01-16T08:28:14;8.93;;;4.40;;
43519;SDS011;46848;51.980;5.918;2024-01-16T08:30:40;11.17;;;4.67;;
43519;SDS011;46848;51.980;5.918;2024-01-16T08:33:05;10.27;;;4.60;;
43519;SDS011;46848;51.980;5.918;2024-01-16T08:35:32;12.20;;;4.80;;
43519;SDS011;46848;51.980;5.918;2024-01-16T08:37:58;5.87;;;4.00;;
43519;SDS011;46848;51.980;5.918;2024-01-16T08:40:24;6.70;;;3.97;;
43519;SDS011;46848;51.980;5.918;2024-01-16T08:42:50;6.37;;;3.83;;
43519;SDS011;46848;51.980;5.918;2024-01-16T08:45:19;8.03;;;3.97;;
43519;SDS011;46848;51.980;5.918;2024-01-16T08:47:45;9.33;;;3.67;;
43519;SDS011;46848;51.980;5.918;2024-01-16T08:50:11;7.93;;;4.37;;
43519;SDS011;46848;51.980;5.918;2024-01-16T08:52:37;10.37;;;4.27;;
43519;SDS011;46848;51.980;5.918;2024-01-16T08:55:03;8.33;;;3.90;;
43519;SDS011;46848;51.980;5.918;2024-01-16T08:57:29;9.60;;;3.87;;
43519;SDS011;46848;51.980;5.918;2024-01-16T08:59:54;9.30;;;3.50;;
43519;SDS011;46848;51.980;5.918;2024-01-16T09:02:20;7.17;;;3.23;;
43519;SDS011;46848;51.980;5.918;2024-01-16T09:04:46;10.67;;;3.40;;
43519;SDS011;46848;51.980;5.918;2024-01-16T09:07:12;9.47;;;3.53;;
43519;SDS011;46848;51.980;5.918;2024-01-16T09:09:40;8.63;;;3.03;;
43519;SDS011;46848;51.980;5.918;2024-01-16T09:12:07;8.33;;;3.00;;
43519;SDS011;46848;51.980;5.918;2024-01-16T09:14:36;11.03;;;2.87;;
43519;SDS011;46848;51.980;5.918;2024-01-16T09:17:02;10.83;;;3.40;;
43519;SDS011;46848;51.980;5.918;2024-01-16T09:19:28;8.10;;;3.20;;
43519;SDS011;46848;51.980;5.918;2024-01-16T09:21:54;8.97;;;3.07;;
43519;SDS011;46848;51.980;5.918;2024-01-16T09:24:20;12.83;;;3.97;;
43519;SDS011;46848;51.980;5.918;2024-01-16T09:26:46;8.33;;;3.23;;
43519;SDS011;46848;51.980;5.918;2024-01-16T09:29:11;9.47;;;3.30;;
43519;SDS011;46848;51.980;5.918;2024-01-16T09:31:37;9.53;;;3.53;;
43519;SDS011;46848;51.980;5.918;2024-01-16T09:34:03;8.27;;;3.10;;
43519;SDS011;46848;51.980;5.918;2024-01-16T09:36:29;9.63;;;3.43;;
43519;SDS011;46848;51.980;5.918;2024-01-16T09:38:55;7.47;;;3.00;;
43519;SDS011;46848;51.980;5.918;2024-01-16T09:41:21;8.27;;;2.87;;
43519;SDS011;46848;51.980;5.918;2024-01-16T09:43:47;8.97;;;3.10;;
43519;SDS011;46848;51.980;5.918;2024-01-16T09:46:13;8.87;;;3.40;;
43519;SDS011;46848;51.980;5.918;2024-01-16T09:48:41;9.63;;;3.17;;
43519;SDS011;46848;51.980;5.918;2024-01-16T09:51:10;8.03;;;2.83;;
43519;SDS011;46848;51.980;5.918;2024-01-16T09:53:39;5.57;;;2.30;;
43519;SDS011;46848;51.980;5.918;2024-01-16T09:56:06;11.43;;;2.97;;
43519;SDS011;46848;51.980;5.918;2024-01-16T09:58:41;9.07;;;2.93;;
43519;SDS011;46848;51.980;5.918;2024-01-16T10:01:08;9.40;;;2.77;;
43519;SDS011;46848;51.980;5.918;2024-01-16T10:03:36;8.90;;;2.67;;
43519;SDS011;46848;51.980;5.918;2024-01-16T10:06:06;6.87;;;2.30;;
43519;SDS011;46848;51.980;5.918;2024-01-16T10:08:32;9.80;;;3.03;;
43519;SDS011;46848;51.980;5.918;2024-01-16T10:10:58;12.70;;;3.07;;
43519;SDS011;46848;51.980;5.918;2024-01-16T10:13:24;8.03;;;2.53;;
43519;SDS011;46848;51.980;5.918;2024-01-16T10:15:51;7.80;;;2.57;;
43519;SDS011;46848;51.980;5.918;2024-01-16T10:18:27;7.43;;;2.70;;
43519;SDS011;46848;51.980;5.918;2024-01-16T10:20:58;8.43;;;2.90;;
43519;SDS011;46848;51.980;5.918;2024-01-16T10:23:28;7.30;;;3.03;;
43519;SDS011;46848;51.980;5.918;2024-01-16T10:28:34;9.30;;;2.10;;
43519;SDS011;46848;51.980;5.918;2024-01-16T10:31:01;7.40;;;2.67;;
43519;SDS011;46848;51.980;5.918;2024-01-16T10:33:28;7.23;;;2.40;;
43519;SDS011;46848;51.980;5.918;2024-01-16T10:38:45;5.18;;;2.40;;
43519;SDS011;46848;51.980;5.918;2024-01-16T10:41:15;7.67;;;2.77;;
43519;SDS011;46848;51.980;5.918;2024-01-16T10:43:42;6.30;;;2.53;;
43519;SDS011;46848;51.980;5.918;2024-01-16T10:46:15;4.57;;;2.37;;
43519;SDS011;46848;51.980;5.918;2024-01-16T10:48:45;6.10;;;2.27;;
43519;SDS011;46848;51.980;5.918;2024-01-16T10:51:28;10.97;;;2.90;;
43519;SDS011;46848;51.980;5.918;2024-01-16T10:53:57;8.87;;;2.97;;
43519;SDS011;46848;51.980;5.918;2024-01-16T10:56:25;9.73;;;2.87;;
43519;SDS011;46848;51.980;5.918;2024-01-16T10:58:57;7.97;;;2.40;;
43519;SDS011;46848;51.980;5.918;2024-01-16T11:01:25;6.60;;;2.00;;
43519;SDS011;46848;51.980;5.918;2024-01-16T11:03:52;6.17;;;2.40;;
43519;SDS011;46848;51.980;5.918;2024-01-16T11:06:22;5.87;;;2.27;;
43519;SDS011;46848;51.980;5.918;2024-01-16T11:08:48;7.37;;;2.27;;
43519;SDS011;46848;51.980;5.918;2024-01-16T11:11:14;5.13;;;2.23;;
43519;SDS011;46848;51.980;5.918;2024-01-16T11:13:41;5.73;;;1.90;;
43519;SDS011;46848;51.980;5.918;2024-01-16T11:16:10;5.90;;;2.10;;
43519;SDS011;46848;51.980;5.918;2024-01-16T11:18:36;6.70;;;1.83;;
43519;SDS011;46848;51.980;5.918;2024-01-16T11:21:05;6.97;;;1.90;;
43519;SDS011;46848;51.980;5.918;2024-01-16T11:23:36;10.33;;;2.37;;
43519;SDS011;46848;51.980;5.918;2024-01-16T11:31:54;8.30;;;2.30;;
43519;SDS011;46848;51.980;5.918;2024-01-16T11:37:09;5.90;;;1.97;;
43519;SDS011;46848;51.980;5.918;2024-01-16T11:39:38;5.43;;;1.83;;
43519;SDS011;46848;51.980;5.918;2024-01-16T11:42:05;4.90;;;2.03;;
43519;SDS011;46848;51.980;5.918;2024-01-16T11:44:43;5.37;;;2.17;;
43519;SDS011;46848;51.980;5.918;2024-01-16T11:47:18;9.83;;;2.17;;
43519;SDS011;46848;51.980;5.918;2024-01-16T11:49:49;7.57;;;2.20;;
43519;SDS011;46848;51.980;5.918;2024-01-16T11:55:28;10.13;;;2.63;;
43519;SDS011;46848;51.980;5.918;2024-01-16T12:00:49;5.73;;;2.10;;
43519;SDS011;46848;51.980;5.918;2024-01-16T12:03:21;7.07;;;2.80;;
43519;SDS011;46848;51.980;5.918;2024-01-16T12:05:59;6.03;;;2.00;;
43519;SDS011;46848;51.980;5.918;2024-01-16T12:08:27;9.60;;;2.67;;
43519;SDS011;46848;51.980;5.918;2024-01-16T12:10:53;8.10;;;2.60;;
43519;SDS011;46848;51.980;5.918;2024-01-16T12:13:19;7.23;;;2.27;;
43519;SDS011;46848;51.980;5.918;2024-01-16T12:15:44;8.03;;;2.80;;
43519;SDS011;46848;51.980;5.918;2024-01-16T12:18:17;6.37;;;2.43;;
43519;SDS011;46848;51.980;5.918;2024-01-16T12:20:43;4.63;;;2.37;;
43519;SDS011;46848;51.980;5.918;2024-01-16T12:23:09;7.37;;;2.37;;
43519;SDS011;46848;51.980;5.918;2024-01-16T12:25:35;5.33;;;2.00;;
43519;SDS011;46848;51.980;5.918;2024-01-16T12:28:05;4.23;;;2.00;;
43519;SDS011;46848;51.980;5.918;2024-01-16T12:30:33;6.27;;;2.50;;
43519;SDS011;46848;51.980;5.918;2024-01-16T12:33:05;7.03;;;2.40;;
43519;SDS011;46848;51.980;5.918;2024-01-16T12:35:33;6.00;;;2.40;;
43519;SDS011;46848;51.980;5.918;2024-01-16T12:38:00;7.33;;;2.33;;
43519;SDS011;46848;51.980;5.918;2024-01-16T12:40:26;7.93;;;2.90;;
43519;SDS011;46848;51.980;5.918;2024-01-16T12:42:53;6.97;;;2.20;;
43519;SDS011;46848;51.980;5.918;2024-01-16T12:45:19;7.63;;;2.53;;
43519;SDS011;46848;51.980;5.918;2024-01-16T12:47:52;6.63;;;2.40;;
43519;SDS011;46848;51.980;5.918;2024-01-16T12:50:25;7.80;;;2.37;;
43519;SDS011;46848;51.980;5.918;2024-01-16T12:53:05;4.50;;;2.53;;
43519;SDS011;46848;51.980;5.918;2024-01-16T12:55:31;6.77;;;2.37;;
43519;SDS011;46848;51.980;5.918;2024-01-16T12:58:16;7.67;;;2.70;;
43519;SDS011;46848;51.980;5.918;2024-01-16T13:00:44;6.13;;;2.53;;
43519;SDS011;46848;51.980;5.918;2024-01-16T13:03:19;6.77;;;2.17;;
43519;SDS011;46848;51.980;5.918;2024-01-16T13:05:54;4.43;;;2.20;;
43519;SDS011;46848;51.980;5.918;2024-01-16T13:08:20;5.83;;;2.37;;
43519;SDS011;46848;51.980;5.918;2024-01-16T13:11:01;7.63;;;2.73;;
43519;SDS011;46848;51.980;5.918;2024-01-16T13:13:30;5.43;;;2.20;;
43519;SDS011;46848;51.980;5.918;2024-01-16T13:15:57;7.63;;;2.47;;
43519;SDS011;46848;51.980;5.918;2024-01-16T13:18:24;5.93;;;2.23;;
43519;SDS011;46848;51.980;5.918;2024-01-16T13:20:51;5.53;;;2.20;;
43519;SDS011;46848;51.980;5.918;2024-01-16T13:23:17;6.17;;;2.33;;
43519;SDS011;46848;51.980;5.918;2024-01-16T13:25:43;5.83;;;2.37;;
43519;SDS011;46848;51.980;5.918;2024-01-16T13:28:11;7.97;;;2.77;;
43519;SDS011;46848;51.980;5.918;2024-01-16T13:30:37;5.93;;;2.20;;
43519;SDS011;46848;51.980;5.918;2024-01-16T13:33:03;10.57;;;2.57;;
43519;SDS011;46848;51.980;5.918;2024-01-16T13:35:29;6.93;;;2.60;;
43519;SDS011;46848;51.980;5.918;2024-01-16T13:37:55;8.13;;;2.90;;
43519;SDS011;46848;51.980;5.918;2024-01-16T13:40:21;5.50;;;2.37;;
43519;SDS011;46848;51.980;5.918;2024-01-16T13:42:47;9.83;;;2.80;;
43519;SDS011;46848;51.980;5.918;2024-01-16T13:45:13;5.87;;;2.40;;
43519;SDS011;46848;51.980;5.918;2024-01-16T13:47:39;5.20;;;2.43;;
43519;SDS011;46848;51.980;5.918;2024-01-16T13:50:08;8.60;;;2.37;;
43519;SDS011;46848;51.980;5.918;2024-01-16T13:52:35;11.30;;;2.77;;
43519;SDS011;46848;51.980;5.918;2024-01-16T13:55:01;6.83;;;2.97;;
43519;SDS011;46848;51.980;5.918;2024-01-16T13:57:30;7.37;;;2.60;;
43519;SDS011;46848;51.980;5.918;2024-01-16T13:59:56;8.13;;;2.70;;
43519;SDS011;46848;51.980;5.918;2024-01-16T14:02:23;7.07;;;2.70;;
43519;SDS011;46848;51.980;5.918;2024-01-16T14:04:49;7.87;;;2.50;;
43519;SDS011;46848;51.980;5.918;2024-01-16T14:07:16;8.77;;;2.57;;
43519;SDS011;46848;51.980;5.918;2024-01-16T14:09:41;7.50;;;2.23;;
43519;SDS011;46848;51.980;5.918;2024-01-16T14:12:07;5.53;;;2.60;;
43519;SDS011;46848;51.980;5.918;2024-01-16T14:14:33;8.10;;;2.67;;
43519;SDS011;46848;51.980;5.918;2024-01-16T14:17:00;7.00;;;2.50;;
43519;SDS011;46848;51.980;5.918;2024-01-16T14:19:26;6.77;;;2.60;;
43519;SDS011;46848;51.980;5.918;2024-01-16T14:21:54;6.50;;;2.37;;
43519;SDS011;46848;51.980;5.918;2024-01-16T14:24:21;6.53;;;2.43;;
43519;SDS011;46848;51.980;5.918;2024-01-16T14:26:46;10.10;;;2.33;;
43519;SDS011;46848;51.980;5.918;2024-01-16T14:29:12;7.87;;;2.73;;
43519;SDS011;46848;51.980;5.918;2024-01-16T14:31:40;6.40;;;2.37;;
43519;SDS011;46848;51.980;5.918;2024-01-16T14:34:11;6.23;;;2.00;;
43519;SDS011;46848;51.980;5.918;2024-01-16T14:36:40;5.63;;;2.57;;
43519;SDS011;46848;51.980;5.918;2024-01-16T14:39:06;4.70;;;2.20;;
43519;SDS011;46848;51.980;5.918;2024-01-16T14:41:41;5.10;;;1.90;;
43519;SDS011;46848;51.980;5.918;2024-01-16T14:44:08;7.73;;;2.33;;
43519;SDS011;46848;51.980;5.918;2024-01-16T14:46:34;6.57;;;2.13;;
43519;SDS011;46848;51.980;5.918;2024-01-16T14:49:00;7.23;;;2.20;;
43519;SDS011;46848;51.980;5.918;2024-01-16T14:51:27;8.57;;;2.27;;
43519;SDS011;46848;51.980;5.918;2024-01-16T14:53:53;3.40;;;1.53;;
43519;SDS011;46848;51.980;5.918;2024-01-16T14:56:18;5.30;;;2.20;;
43519;SDS011;46848;51.980;5.918;2024-01-16T14:58:45;6.77;;;3.47;;
43519;SDS011;46848;51.980;5.918;2024-01-16T15:01:11;9.43;;;4.33;;
43519;SDS011;46848;51.980;5.918;2024-01-16T15:03:36;9.83;;;4.93;;
43519;SDS011;46848;51.980;5.918;2024-01-16T15:06:02;8.77;;;5.30;;
43519;SDS011;46848;51.980;5.918;2024-01-16T15:08:29;7.97;;;4.20;;